Leon, Virginia
Current Conditions -  °F | °C
As of 11:35 AM on Wednesday 22 Oct 2014 (Local Time) from KOMH Reporting Station
Overcast Overcast  
Wind Chill: 57°   Ceiling: 3300
Heat Index: 57°   Visibility: 10mi
Dew Point: 46°   Wind: 18mph
Humidity: 67%   Direction: 310°NW
Pressure: 29.98"   Gusts: 24mph
Location:  38.44°N, 78.14°W
Report Text: KOMH 221535Z AUTO 31016G21KT 10SM BKN033 BKN041 OVC075 14/08 A2998 RMK AO2
Loading
Personal Weather Stations






























Interactive Weather Map
Tropical Storm Tracking
New forecast layout! Learn more

10-Day Weather Forecast

Advertisements
Track Severe Weather on mobile